TimeCDT,TemperatureF,Dew PointF,Humidity,Sea Level PressureIn,VisibilityMPH,Wind Direction,Wind SpeedMPH,Gust SpeedMPH,PrecipitationIn,Events,Conditions,WindDirDegrees,DateUTC
12:15 AM,67.3,64.4,90,29.86,10.0,North,6.9,-,N/A,,Mostly Cloudy,350,2013-09-21 05:15:00
12:35 AM,67.1,63.3,88,29.86,10.0,North,9.2,-,N/A,,Overcast,350,2013-09-21 05:35:00
12:55 AM,66.6,62.2,86,29.86,10.0,North,8.1,-,N/A,,Overcast,360,2013-09-21 05:55:00
1:15 AM,66.4,61.7,85,29.85,10.0,North,9.2,-,N/A,,Overcast,350,2013-09-21 06:15:00
1:35 AM,66.4,61.0,83,29.85,10.0,North,8.1,16.1,N/A,,Overcast,350,2013-09-21 06:35:00
1:55 AM,66.4,60.8,82,29.86,10.0,North,10.4,17.3,N/A,,Overcast,350,2013-09-21 06:55:00
2:15 AM,66.2,60.1,81,29.85,10.0,North,8.1,-,N/A,,Overcast,350,2013-09-21 07:15:00
2:35 AM,66.2,59.9,80,29.86,10.0,NNW,9.2,-,N/A,,Overcast,340,2013-09-21 07:35:00
2:55 AM,65.7,59.0,79,29.85,10.0,North,10.4,-,N/A,,Overcast,350,2013-09-21 07:55:00
3:15 AM,65.3,57.7,76,29.85,10.0,North,8.1,-,N/A,,Overcast,360,2013-09-21 08:15:00
3:35 AM,64.9,57.2,76,29.85,10.0,North,10.4,-,N/A,,Overcast,360,2013-09-21 08:35:00
3:55 AM,64.0,56.3,76,29.86,10.0,North,8.1,-,N/A,,Mostly Cloudy,350,2013-09-21 08:55:00
4:15 AM,62.6,55.8,78,29.87,10.0,NNW,4.6,-,N/A,,Scattered Clouds,340,2013-09-21 09:15:00
4:35 AM,61.9,55.4,79,29.87,10.0,North,6.9,-,N/A,,Scattered Clouds,350,2013-09-21 09:35:00
4:55 AM,61.0,54.9,80,29.87,10.0,North,4.6,-,N/A,,Clear,350,2013-09-21 09:55:00
5:15 AM,59.9,54.5,82,29.87,10.0,NNW,3.5,-,N/A,,Clear,340,2013-09-21 10:15:00
5:35 AM,58.6,53.8,84,29.88,10.0,NNW,3.5,-,N/A,,Clear,340,2013-09-21 10:35:00
5:55 AM,57.2,52.9,85,29.89,10.0,NW,3.5,-,N/A,,Clear,320,2013-09-21 10:55:00
6:15 AM,57.2,52.9,85,29.89,10.0,NW,6.9,-,N/A,,Clear,320,2013-09-21 11:15:00
6:35 AM,57.2,53.2,87,29.90,10.0,NW,4.6,-,N/A,,Clear,320,2013-09-21 11:35:00
6:55 AM,57.2,53.1,86,29.90,10.0,NNW,4.6,-,N/A,,Clear,330,2013-09-21 11:55:00
7:15 AM,57.2,53.1,86,29.91,10.0,NNW,3.5,-,N/A,,Clear,330,2013-09-21 12:15:00
7:35 AM,57.6,53.8,87,29.92,10.0,NNW,3.5,-,N/A,,Clear,330,2013-09-21 12:35:00
7:55 AM,59.4,55.4,87,29.92,10.0,NNW,4.6,-,N/A,,Clear,330,2013-09-21 12:55:00
8:15 AM,59.9,55.4,85,29.92,10.0,NNW,6.9,-,N/A,,Clear,340,2013-09-21 13:15:00
8:35 AM,61.0,55.9,83,29.93,10.0,NNW,6.9,-,N/A,,Clear,340,2013-09-21 13:35:00
8:55 AM,63.1,56.5,79,29.93,10.0,North,6.9,-,N/A,,Clear,360,2013-09-21 13:55:00
9:15 AM,64.2,55.6,73,29.93,10.0,North,6.9,-,N/A,,Clear,350,2013-09-21 14:15:00
9:35 AM,65.7,55.0,69,29.93,10.0,North,6.9,-,N/A,,Clear,360,2013-09-21 14:35:00
9:55 AM,67.5,54.9,64,29.93,10.0,North,11.5,-,N/A,,Clear,10,2013-09-21 14:55:00
10:15 AM,68.5,53.4,58,29.93,10.0,North,8.1,-,N/A,,Clear,10,2013-09-21 15:15:00
10:35 AM,69.4,51.6,53,29.94,10.0,North,11.5,-,N/A,,Clear,350,2013-09-21 15:35:00
10:55 AM,70.9,52.7,53,29.94,10.0,North,10.4,-,N/A,,Clear,10,2013-09-21 15:55:00
11:15 AM,71.2,51.1,49,29.93,10.0,NNW,12.7,19.6,N/A,,Clear,340,2013-09-21 16:15:00
11:35 AM,71.6,50.0,46,29.93,10.0,NNW,12.7,17.3,N/A,,Clear,330,2013-09-21 16:35:00
11:55 AM,72.5,50.2,45,29.93,7.0,North,10.4,-,N/A,,Clear,360,2013-09-21 16:55:00
12:15 PM,73.2,50.0,44,29.92,10.0,NW,9.2,-,N/A,,Clear,320,2013-09-21 17:15:00
12:35 PM,74.1,50.5,43,29.92,10.0,NNW,10.4,17.3,N/A,,Clear,340,2013-09-21 17:35:00
12:55 PM,74.5,50.7,43,29.92,10.0,NW,10.4,-,N/A,,Clear,320,2013-09-21 17:55:00
1:15 PM,75.0,51.8,44,29.91,10.0,North,8.1,-,N/A,,Clear,360,2013-09-21 18:15:00
1:35 PM,75.4,51.1,42,29.90,10.0,NNW,9.2,16.1,N/A,,Clear,340,2013-09-21 18:35:00
1:55 PM,75.2,50.2,41,29.89,10.0,NNW,5.8,-,N/A,,Clear,330,2013-09-21 18:55:00
2:15 PM,76.1,50.9,41,29.89,10.0,NW,10.4,17.3,N/A,,Clear,320,2013-09-21 19:15:00
2:35 PM,76.3,50.4,40,29.89,10.0,NW,11.5,-,N/A,,Clear,320,2013-09-21 19:35:00
2:55 PM,76.3,50.9,41,29.88,10.0,West,6.9,17.3,N/A,,Clear,260,2013-09-21 19:55:00
3:15 PM,76.5,50.7,40,29.88,10.0,NNW,12.7,16.1,N/A,,Scattered Clouds,330,2013-09-21 20:15:00
3:35 PM,76.5,49.6,39,29.88,10.0,NW,8.1,-,N/A,,Clear,310,2013-09-21 20:35:00
3:55 PM,76.6,48.7,37,29.87,10.0,North,6.9,17.3,N/A,,Clear,350,2013-09-21 20:55:00
4:15 PM,76.3,50.4,40,29.87,10.0,North,10.4,-,N/A,,Clear,350,2013-09-21 21:15:00
4:35 PM,76.3,51.1,41,29.87,10.0,NNW,9.2,-,N/A,,Clear,340,2013-09-21 21:35:00
4:55 PM,75.6,48.7,39,29.87,10.0,NNW,12.7,17.3,N/A,,Clear,330,2013-09-21 21:55:00
5:15 PM,75.0,49.6,41,29.87,10.0,NNW,10.4,-,N/A,,Clear,330,2013-09-21 22:15:00
5:35 PM,74.3,49.5,41,29.88,10.0,NNW,9.2,-,N/A,,Clear,330,2013-09-21 22:35:00
5:55 PM,73.2,50.0,44,29.88,10.0,NNW,8.1,-,N/A,,Clear,340,2013-09-21 22:55:00
6:15 PM,71.2,52.0,51,29.88,10.0,NW,6.9,-,N/A,,Clear,320,2013-09-21 23:15:00
6:35 PM,68.0,53.1,59,29.89,10.0,NNW,6.9,-,N/A,,Clear,330,2013-09-21 23:35:00
6:55 PM,64.8,53.8,68,29.89,10.0,NNW,3.5,-,N/A,,Clear,340,2013-09-21 23:55:00
7:15 PM,64.8,53.2,66,29.89,10.0,Calm,Calm,-,N/A,,Clear,0,2013-09-22 00:15:00
7:35 PM,63.9,52.9,67,29.90,10.0,North,3.5,-,N/A,,Clear,360,2013-09-22 00:35:00
7:55 PM,62.4,52.3,70,29.90,10.0,Calm,Calm,-,N/A,,Clear,0,2013-09-22 00:55:00
8:15 PM,59.7,52.2,76,29.91,10.0,NW,3.5,-,N/A,,Clear,320,2013-09-22 01:15:00
8:35 PM,58.8,52.7,80,29.91,10.0,NNW,3.5,-,N/A,,Clear,330,2013-09-22 01:35:00
8:55 PM,58.5,52.9,82,29.91,7.0,Calm,Calm,-,N/A,,Clear,0,2013-09-22 01:55:00
9:15 PM,57.4,52.5,84,29.91,7.0,Calm,Calm,-,N/A,,Clear,0,2013-09-22 02:15:00
9:35 PM,56.7,52.2,85,29.91,10.0,Calm,Calm,-,N/A,,Clear,0,2013-09-22 02:35:00
9:55 PM,56.5,52.3,86,29.92,10.0,Calm,Calm,-,N/A,,Clear,0,2013-09-22 02:55:00
10:15 PM,55.2,51.4,87,29.92,10.0,Calm,Calm,-,N/A,,Clear,0,2013-09-22 03:15:00
10:35 PM,54.7,51.1,88,29.92,10.0,Calm,Calm,-,N/A,,Clear,0,2013-09-22 03:35:00
10:55 PM,54.9,51.3,88,29.92,7.0,Calm,Calm,-,N/A,,Clear,0,2013-09-22 03:55:00
11:15 PM,54.5,50.9,88,29.92,10.0,Calm,Calm,-,N/A,,Clear,0,2013-09-22 04:15:00
11:35 PM,54.3,51.1,89,29.92,10.0,Calm,Calm,-,N/A,,Clear,0,2013-09-22 04:35:00
11:55 PM,53.8,50.5,89,29.93,10.0,Calm,Calm,-,N/A,,Clear,0,2013-09-22 04:55:00